Time;durP1;ratioP1;P1;durP2;ratioP2;P2;SDS_P1;SDS_P2;PMS_P1;PMS_P2;Temp;Humidity;BMP_temperature;BMP_pressure;BME280_temperature;BME280_humidity;BME280_pressure;Samples;Min_cycle;Max_cycle;Signal;HPM_P1;HPM_P2
2023/08/30 00:02:18;;;;;;;10.52;9.20;;;14.30;99.90;;;;;;5069831;28;20462;-78
2023/08/30 00:04:43;;;;;;;10.35;9.05;;;14.30;99.90;;;;;;5063106;28;20039;-78
2023/08/30 00:07:10;;;;;;;11.95;10.75;;;14.30;99.90;;;;;;5045915;28;20090;-78
2023/08/30 00:09:36;;;;;;;12.52;10.95;;;14.20;99.90;;;;;;5065713;28;20048;-78
2023/08/30 00:12:02;;;;;;;10.82;9.73;;;14.20;99.90;;;;;;5063138;28;20416;-78
2023/08/30 00:14:28;;;;;;;10.85;9.55;;;14.20;99.90;;;;;;5061184;28;20079;-78
2023/08/30 00:16:53;;;;;;;12.23;10.93;;;14.10;99.90;;;;;;5064295;28;20052;-78
2023/08/30 00:19:19;;;;;;;11.20;9.95;;;14.10;99.90;;;;;;5090041;28;20042;-77
2023/08/30 00:21:44;;;;;;;11.98;10.73;;;14.00;99.90;;;;;;5065612;28;20055;-77
2023/08/30 00:24:10;;;;;;;12.23;10.95;;;14.00;99.90;;;;;;5070708;28;20546;-77
2023/08/30 00:26:35;;;;;;;12.02;10.70;;;13.90;99.90;;;;;;5061573;28;20072;-78
2023/08/30 00:29:01;;;;;;;11.93;10.20;;;14.00;99.90;;;;;;5070005;28;20036;-77
2023/08/30 00:31:27;;;;;;;11.55;10.35;;;13.90;99.90;;;;;;5067906;28;20036;-77
2023/08/30 00:33:52;;;;;;;13.70;11.77;;;13.90;99.90;;;;;;5065082;28;20043;-77
2023/08/30 00:36:18;;;;;;;12.20;11.00;;;13.80;99.90;;;;;;5074078;28;20050;-77
2023/08/30 00:38:44;;;;;;;12.10;10.90;;;13.80;99.90;;;;;;5083117;28;20036;-77
2023/08/30 00:41:10;;;;;;;12.55;11.35;;;13.80;99.90;;;;;;5063618;28;20185;-77
2023/08/30 00:43:35;;;;;;;13.25;11.95;;;13.70;99.90;;;;;;5067674;28;20039;-78
2023/08/30 00:46:01;;;;;;;11.65;10.45;;;13.70;99.90;;;;;;5058046;28;20051;-78
2023/08/30 00:48:27;;;;;;;12.93;11.52;;;13.70;99.90;;;;;;5073116;28;20114;-78
2023/08/30 00:50:53;;;;;;;12.55;10.45;;;13.70;99.90;;;;;;5073226;28;20075;-77
2023/08/30 00:53:18;;;;;;;11.13;9.98;;;13.70;99.90;;;;;;5056453;28;20532;-77
2023/08/30 00:55:44;;;;;;;11.20;10.10;;;13.70;99.90;;;;;;5069057;28;20072;-77
2023/08/30 00:58:11;;;;;;;10.70;9.60;;;13.60;99.90;;;;;;5065032;28;20043;-77
2023/08/30 01:00:37;;;;;;;12.10;10.40;;;13.60;99.90;;;;;;5073865;28;20032;-77
2023/08/30 01:03:05;;;;;;;12.90;10.80;;;13.60;99.90;;;;;;5064490;28;20087;-77
2023/08/30 01:05:30;;;;;;;11.70;9.90;;;13.60;99.90;;;;;;5066744;28;20044;-77
2023/08/30 01:07:56;;;;;;;13.02;10.45;;;13.50;99.90;;;;;;5068030;28;20106;-78
2023/08/30 01:10:38;;;;;;;11.95;10.63;;;13.50;99.90;;;;;;5065716;28;20036;-77
2023/08/30 01:13:10;;;;;;;11.10;9.90;;;13.50;99.90;;;;;;5068749;28;20039;-78
2023/08/30 01:15:36;;;;;;;13.55;10.70;;;13.60;99.90;;;;;;5067780;28;20097;-77
2023/08/30 01:18:04;;;;;;;11.85;9.90;;;13.60;99.90;;;;;;5070849;28;20097;-78
2023/08/30 01:20:37;;;;;;;11.50;10.30;;;13.50;99.90;;;;;;5061481;28;20083;-78
2023/08/30 01:23:10;;;;;;;13.00;10.05;;;13.50;99.90;;;;;;5064781;28;20036;-78
2023/08/30 01:25:46;;;;;;;12.23;10.15;;;13.50;99.90;;;;;;5064732;28;20032;-78
2023/08/30 01:28:15;;;;;;;11.13;9.88;;;13.50;99.90;;;;;;5060400;28;20120;-78
2023/08/30 01:30:42;;;;;;;10.98;9.80;;;13.50;99.90;;;;;;5065055;28;20089;-77
2023/08/30 01:33:09;;;;;;;12.13;10.07;;;13.40;99.90;;;;;;5064059;28;20038;-77
2023/08/30 01:35:36;;;;;;;11.85;10.57;;;13.40;99.90;;;;;;5073042;28;20047;-77
2023/08/30 01:38:04;;;;;;;12.65;10.35;;;13.40;99.90;;;;;;5067952;28;20039;-77
2023/08/30 01:40:35;;;;;;;11.85;10.13;;;13.30;99.90;;;;;;5072586;28;20040;-78
2023/08/30 01:43:02;;;;;;;10.13;9.02;;;13.30;99.90;;;;;;5056820;28;20040;-78
2023/08/30 01:45:29;;;;;;;11.55;9.85;;;13.30;99.90;;;;;;5059373;28;20408;-77
2023/08/30 01:47:56;;;;;;;11.77;10.27;;;13.40;99.90;;;;;;5051137;28;20062;-77
2023/08/30 01:50:23;;;;;;;13.60;9.88;;;13.30;99.90;;;;;;5082116;28;20462;-77
2023/08/30 01:52:49;;;;;;;10.20;9.10;;;13.30;99.90;;;;;;5070384;28;20050;-77
2023/08/30 01:55:17;;;;;;;11.45;9.45;;;13.30;99.90;;;;;;5068833;28;20070;-77
2023/08/30 01:57:43;;;;;;;11.60;9.68;;;13.30;99.90;;;;;;5063936;28;20044;-77
2023/08/30 02:00:09;;;;;;;10.52;9.07;;;13.30;99.90;;;;;;5076674;28;20499;-78
2023/08/30 02:02:35;;;;;;;11.57;9.40;;;13.30;99.90;;;;;;5094660;28;20507;-77
2023/08/30 02:05:01;;;;;;;12.88;9.38;;;13.30;99.90;;;;;;5074565;28;21053;-78
2023/08/30 02:07:47;;;;;;;14.65;9.68;;;13.30;99.90;;;;;;5083041;28;20047;-77
2023/08/30 02:10:18;;;;;;;10.93;9.00;;;13.20;99.90;;;;;;5070751;28;20526;-77
2023/08/30 02:12:54;;;;;;;11.73;9.93;;;13.20;99.90;;;;;;5061533;28;20123;-77
2023/08/30 02:15:21;;;;;;;11.98;10.45;;;13.20;99.90;;;;;;5070295;28;20103;-77
2023/08/30 02:17:48;;;;;;;13.70;10.40;;;13.20;99.90;;;;;;5064985;28;20442;-77
2023/08/30 02:20:14;;;;;;;12.68;10.40;;;13.20;99.90;;;;;;5068436;28;20064;-77
2023/08/30 02:22:39;;;;;;;12.00;9.77;;;13.20;99.90;;;;;;5073582;28;20534;-77
2023/08/30 02:25:06;;;;;;;10.93;9.77;;;13.20;99.90;;;;;;5074911;28;20040;-77
2023/08/30 02:27:32;;;;;;;13.00;9.65;;;13.20;99.90;;;;;;5067819;28;20418;-77
2023/08/30 02:29:58;;;;;;;12.40;10.68;;;13.20;99.90;;;;;;5066749;28;20046;-77
2023/08/30 02:32:23;;;;;;;12.50;9.60;;;13.20;99.90;;;;;;5056881;28;20040;-77
2023/08/30 02:34:51;;;;;;;12.38;10.77;;;13.20;99.90;;;;;;5062829;28;20037;-77
2023/08/30 02:37:16;;;;;;;11.10;9.90;;;13.20;99.90;;;;;;5070789;28;20076;-77
2023/08/30 02:39:42;;;;;;;12.15;10.57;;;13.20;99.90;;;;;;5063807;28;20028;-77
2023/08/30 02:42:08;;;;;;;11.05;9.48;;;13.30;99.90;;;;;;5070627;28;20504;-77
2023/08/30 02:44:33;;;;;;;11.52;10.00;;;13.20;99.90;;;;;;5088345;28;20036;-78
2023/08/30 02:46:59;;;;;;;10.70;9.57;;;13.30;99.90;;;;;;5065447;28;20491;-78
2023/08/30 02:49:24;;;;;;;11.23;9.65;;;13.20;99.90;;;;;;5069136;28;20043;-78
2023/08/30 02:51:50;;;;;;;11.75;10.05;;;13.20;99.90;;;;;;5051366;28;20032;-78
2023/08/30 02:54:15;;;;;;;14.23;9.95;;;13.20;99.90;;;;;;5067441;28;20039;-77
2023/08/30 02:56:43;;;;;;;12.57;9.73;;;13.10;99.90;;;;;;5067530;28;20238;-77
2023/08/30 02:59:09;;;;;;;11.15;9.00;;;13.20;99.90;;;;;;5076978;28;20043;-78
2023/08/30 03:01:35;;;;;;;12.75;9.95;;;13.10;99.90;;;;;;5058891;28;20040;-77
2023/08/30 03:04:00;;;;;;;10.70;9.60;;;13.10;99.90;;;;;;5075599;28;20028;-77
2023/08/30 03:06:26;;;;;;;12.00;9.98;;;13.10;99.90;;;;;;5088610;28;20039;-78
2023/08/30 03:08:53;;;;;;;12.82;9.85;;;13.10;99.90;;;;;;5091134;28;20081;-78
2023/08/30 03:11:18;;;;;;;12.20;9.90;;;13.10;99.90;;;;;;5070902;28;20036;-78
2023/08/30 03:13:44;;;;;;;12.23;10.32;;;13.00;99.90;;;;;;5089027;28;20085;-78
2023/08/30 03:16:14;;;;;;;14.10;10.25;;;13.00;99.90;;;;;;5082054;28;20047;-77
2023/08/30 03:18:40;;;;;;;12.20;10.15;;;12.90;99.90;;;;;;5091439;28;20047;-78
2023/08/30 03:21:07;;;;;;;13.88;10.57;;;12.90;99.90;;;;;;5074998;28;20031;-78
2023/08/30 03:23:33;;;;;;;12.35;9.88;;;12.90;99.90;;;;;;5087805;28;20028;-78
2023/08/30 03:26:00;;;;;;;13.15;10.95;;;12.80;99.90;;;;;;5067572;28;20404;-78
2023/08/30 03:28:27;;;;;;;12.15;10.30;;;12.70;99.90;;;;;;5074404;28;20057;-78
2023/08/30 03:30:52;;;;;;;16.58;10.50;;;12.70;99.90;;;;;;5091814;28;20085;-78
2023/08/30 03:33:18;;;;;;;13.55;10.63;;;12.70;99.90;;;;;;5067235;28;20075;-78
2023/08/30 03:35:43;;;;;;;12.38;9.98;;;12.60;99.90;;;;;;5066754;28;20040;-78
2023/08/30 03:38:09;;;;;;;14.20;10.43;;;12.60;99.90;;;;;;5067018;28;20121;-78
2023/08/30 03:40:35;;;;;;;11.95;9.90;;;12.50;99.90;;;;;;5066747;28;20116;-78
2023/08/30 03:43:00;;;;;;;17.23;11.98;;;12.50;99.90;;;;;;5073411;28;20075;-78
2023/08/30 03:45:26;;;;;;;12.93;10.35;;;12.40;99.90;;;;;;5062771;28;20036;-78
2023/08/30 03:47:51;;;;;;;14.18;10.80;;;12.40;99.90;;;;;;5062926;28;20123;-78
2023/08/30 03:50:17;;;;;;;13.07;11.13;;;12.40;99.90;;;;;;5070251;28;20036;-78
2023/08/30 03:52:42;;;;;;;14.48;10.93;;;12.50;99.90;;;;;;5053589;28;20534;-78
2023/08/30 03:55:08;;;;;;;12.55;10.18;;;12.30;99.90;;;;;;5068501;28;20045;-77
2023/08/30 03:57:34;;;;;;;14.52;10.63;;;12.30;99.90;;;;;;5067316;28;20036;-78
2023/08/30 03:59:59;;;;;;;12.43;10.70;;;12.40;99.90;;;;;;5064767;28;20163;-78
2023/08/30 04:02:25;;;;;;;13.98;10.95;;;12.40;99.90;;;;;;5054932;28;20050;-78
2023/08/30 04:04:51;;;;;;;12.57;10.75;;;12.40;99.90;;;;;;5070934;28;20414;-78
2023/08/30 04:07:16;;;;;;;13.48;10.95;;;12.50;99.90;;;;;;5069981;28;20094;-78
2023/08/30 04:09:42;;;;;;;14.07;11.75;;;12.40;99.90;;;;;;5083148;28;20074;-78
2023/08/30 04:12:07;;;;;;;15.38;10.93;;;12.50;99.90;;;;;;5068901;28;20489;-78
2023/08/30 04:14:33;;;;;;;14.77;11.20;;;12.50;99.90;;;;;;5065078;28;20048;-78
2023/08/30 04:16:58;;;;;;;12.85;10.50;;;12.50;99.90;;;;;;5064963;28;20040;-78
2023/08/30 04:19:24;;;;;;;14.40;10.88;;;12.50;99.90;;;;;;5083941;28;20487;-78
2023/08/30 04:21:50;;;;;;;13.50;11.15;;;12.50;99.90;;;;;;5065483;28;20329;-78
2023/08/30 04:24:15;;;;;;;14.02;10.55;;;12.50;99.90;;;;;;5062446;28;20607;-78
2023/08/30 04:26:41;;;;;;;11.93;10.45;;;12.50;99.90;;;;;;5056144;28;20036;-78
2023/08/30 04:29:07;;;;;;;14.88;11.38;;;12.50;99.90;;;;;;5073268;28;20131;-78
2023/08/30 04:31:32;;;;;;;12.88;10.63;;;12.50;99.90;;;;;;5065887;28;20135;-79
2023/08/30 04:33:58;;;;;;;12.13;10.18;;;12.50;99.90;;;;;;5047035;28;20059;-78
2023/08/30 04:36:23;;;;;;;14.25;10.70;;;12.50;99.90;;;;;;5064443;28;20036;-78
2023/08/30 04:38:49;;;;;;;13.27;10.57;;;12.50;99.90;;;;;;5083691;28;20047;-78
2023/08/30 04:41:14;;;;;;;13.80;10.38;;;12.40;99.90;;;;;;5065104;28;20035;-78
2023/08/30 04:43:40;;;;;;;12.05;9.65;;;12.40;99.90;;;;;;5073613;28;20035;-78
2023/08/30 04:46:06;;;;;;;12.75;10.52;;;12.40;99.90;;;;;;5061971;28;20103;-78
2023/08/30 04:48:31;;;;;;;13.00;10.15;;;12.40;99.90;;;;;;5064244;28;20036;-78
2023/08/30 04:51:02;;;;;;;12.57;10.02;;;12.40;99.90;;;;;;5064130;28;20465;-78
2023/08/30 04:53:28;;;;;;;14.70;10.30;;;12.40;99.90;;;;;;5082669;28;20040;-78
2023/08/30 04:55:54;;;;;;;11.27;9.85;;;12.40;99.90;;;;;;5072829;28;20113;-78
2023/08/30 04:58:20;;;;;;;12.77;10.10;;;12.40;99.90;;;;;;5063915;28;20123;-78
2023/08/30 05:00:45;;;;;;;12.13;9.68;;;12.50;99.90;;;;;;5088254;28;20047;-78
2023/08/30 05:03:11;;;;;;;12.98;9.93;;;12.50;99.90;;;;;;5070116;28;20488;-79
2023/08/30 05:05:37;;;;;;;15.52;9.65;;;12.50;99.90;;;;;;5061326;28;20059;-78
2023/08/30 05:08:03;;;;;;;11.70;9.35;;;12.60;99.90;;;;;;5071392;28;20105;-78
2023/08/30 05:10:29;;;;;;;12.68;10.02;;;12.60;99.90;;;;;;5079734;28;20499;-78
2023/08/30 05:12:54;;;;;;;12.63;10.13;;;12.60;99.90;;;;;;5068043;28;20036;-79
2023/08/30 05:15:20;;;;;;;12.63;9.85;;;12.60;99.90;;;;;;5066997;28;20055;-78
2023/08/30 05:17:46;;;;;;;11.32;9.35;;;12.60;99.90;;;;;;5075747;28;20429;-78
2023/08/30 05:20:11;;;;;;;11.68;9.57;;;12.60;99.90;;;;;;5073065;28;20076;-78
2023/08/30 05:22:37;;;;;;;11.90;9.65;;;12.60;99.90;;;;;;5063211;28;20032;-79
2023/08/30 05:25:03;;;;;;;14.85;10.70;;;12.70;99.90;;;;;;5072107;28;20028;-78
2023/08/30 05:27:28;;;;;;;13.27;10.10;;;12.70;99.90;;;;;;5055126;28;20040;-78
2023/08/30 05:29:55;;;;;;;11.13;9.43;;;12.70;99.90;;;;;;5072368;28;20090;-78
2023/08/30 05:32:21;;;;;;;11.65;9.68;;;12.70;99.90;;;;;;5071703;28;20046;-78
2023/08/30 05:34:47;;;;;;;14.38;10.35;;;12.70;99.90;;;;;;5071744;28;20431;-78
2023/08/30 05:37:13;;;;;;;11.05;9.18;;;12.80;99.90;;;;;;5071957;28;20039;-78
2023/08/30 05:39:38;;;;;;;13.65;9.48;;;12.80;99.90;;;;;;5076488;28;20035;-78
2023/08/30 05:42:04;;;;;;;12.52;9.60;;;12.90;99.90;;;;;;5089403;28;20061;-78
2023/08/30 05:44:30;;;;;;;11.63;9.93;;;12.90;99.90;;;;;;5076723;28;20048;-78
2023/08/30 05:46:55;;;;;;;11.85;10.00;;;13.00;99.90;;;;;;5078891;28;20043;-78
2023/08/30 05:49:21;;;;;;;12.77;9.85;;;13.00;99.90;;;;;;5071052;28;20458;-78
2023/08/30 05:51:47;;;;;;;13.27;10.80;;;13.10;99.90;;;;;;5070324;28;20039;-78
2023/08/30 05:54:13;;;;;;;13.15;10.25;;;13.20;99.90;;;;;;5072957;28;20044;-78
2023/08/30 05:56:38;;;;;;;14.00;10.52;;;13.20;99.90;;;;;;5072446;28;20392;-78
2023/08/30 05:59:04;;;;;;;13.05;9.98;;;13.40;99.90;;;;;;5072613;28;20482;-78
2023/08/30 06:01:29;;;;;;;13.32;10.05;;;13.50;99.90;;;;;;5073226;28;20043;-79
2023/08/30 06:03:55;;;;;;;12.18;9.57;;;13.60;99.90;;;;;;5055888;28;20036;-78
2023/08/30 06:06:20;;;;;;;13.00;10.55;;;13.60;99.90;;;;;;5073213;28;20422;-79
2023/08/30 06:08:46;;;;;;;14.27;9.82;;;13.70;99.90;;;;;;5072426;28;20036;-79
2023/08/30 06:11:12;;;;;;;11.13;8.85;;;13.80;99.90;;;;;;5072439;28;20043;-79
2023/08/30 06:13:38;;;;;;;12.88;9.43;;;13.90;99.90;;;;;;5072780;28;20451;-78
2023/08/30 06:16:03;;;;;;;15.20;9.90;;;14.00;99.90;;;;;;5072776;28;20051;-79
2023/08/30 06:18:31;;;;;;;14.75;10.05;;;14.00;99.90;;;;;;5072551;28;20032;-78
2023/08/30 06:20:56;;;;;;;12.98;9.88;;;14.10;99.90;;;;;;5081024;28;20036;-79
2023/08/30 06:23:22;;;;;;;13.98;10.50;;;14.20;99.90;;;;;;5084026;28;20067;-79
2023/08/30 06:25:57;;;;;;;12.88;9.50;;;14.30;99.90;;;;;;5078574;28;20048;-79
2023/08/30 06:28:23;;;;;;;11.93;9.05;;;14.40;99.90;;;;;;5074056;28;20043;-79
2023/08/30 06:30:50;;;;;;;13.48;9.40;;;14.50;99.90;;;;;;5078365;28;20051;-78
2023/08/30 06:33:16;;;;;;;11.80;9.48;;;14.50;99.90;;;;;;5072650;28;20086;-78
2023/08/30 06:35:42;;;;;;;11.68;8.98;;;14.50;99.90;;;;;;5071663;28;20407;-78
2023/08/30 06:38:08;;;;;;;12.05;9.43;;;14.60;99.90;;;;;;5054568;28;20060;-78
2023/08/30 06:40:33;;;;;;;12.15;9.30;;;14.60;99.90;;;;;;5074608;28;20056;-79
2023/08/30 06:42:59;;;;;;;14.05;9.50;;;14.60;99.90;;;;;;5073529;28;20032;-79
2023/08/30 06:45:25;;;;;;;14.13;9.73;;;14.70;99.90;;;;;;5070416;28;20074;-79
2023/08/30 06:47:51;;;;;;;11.85;8.98;;;14.50;99.90;;;;;;5068463;28;20044;-79
2023/08/30 06:50:17;;;;;;;11.73;8.80;;;14.50;99.90;;;;;;5069101;28;20043;-78
2023/08/30 06:52:43;;;;;;;14.20;8.95;;;14.40;99.90;;;;;;5088693;28;20040;-79
2023/08/30 06:55:09;;;;;;;12.38;8.43;;;14.40;99.90;;;;;;5071854;28;20036;-79
2023/08/30 06:57:34;;;;;;;10.68;8.50;;;14.40;99.90;;;;;;5075697;28;20036;-78
2023/08/30 07:00:07;;;;;;;14.73;9.00;;;14.40;99.90;;;;;;5075436;28;20036;-79
2023/08/30 07:02:37;;;;;;;12.07;7.90;;;14.40;99.90;;;;;;5075698;28;20124;-78
2023/08/30 07:05:04;;;;;;;9.80;8.30;;;14.40;99.90;;;;;;5075468;28;20032;-79
2023/08/30 07:07:29;;;;;;;10.75;7.88;;;14.40;99.90;;;;;;5075854;28;20364;-79
2023/08/30 07:09:55;;;;;;;12.27;8.00;;;14.40;99.90;;;;;;5057194;28;20093;-79
2023/08/30 07:12:20;;;;;;;9.88;7.85;;;14.40;99.90;;;;;;5058329;28;20040;-78
2023/08/30 07:14:46;;;;;;;10.48;7.82;;;14.40;99.90;;;;;;5093783;28;20047;-78
2023/08/30 07:17:11;;;;;;;10.32;7.93;;;14.40;99.90;;;;;;5075102;28;20523;-79
2023/08/30 07:19:37;;;;;;;12.00;7.53;;;14.40;99.90;;;;;;5072474;28;20036;-78
2023/08/30 07:22:04;;;;;;;10.40;8.07;;;14.50;99.90;;;;;;5091596;28;20047;-79
2023/08/30 07:24:29;;;;;;;13.45;8.15;;;14.50;99.90;;;;;;5094110;28;20043;-79
2023/08/30 07:26:55;;;;;;;10.23;7.60;;;14.50;99.90;;;;;;5067413;28;20407;-79
2023/08/30 07:29:21;;;;;;;10.93;7.38;;;14.60;99.90;;;;;;5075480;28;20036;-78
2023/08/30 07:31:47;;;;;;;10.07;7.28;;;14.60;99.90;;;;;;5075194;28;20046;-79
2023/08/30 07:34:13;;;;;;;10.63;7.68;;;14.70;99.90;;;;;;5075228;28;20036;-79
2023/08/30 07:36:38;;;;;;;10.45;7.68;;;14.80;99.90;;;;;;5068738;28;20048;-78
2023/08/30 07:39:04;;;;;;;9.85;7.32;;;14.90;99.90;;;;;;5072237;28;20067;-79
2023/08/30 07:41:29;;;;;;;8.45;6.57;;;15.10;99.90;;;;;;5075235;28;20511;-79
2023/08/30 07:43:55;;;;;;;9.10;6.70;;;15.30;99.90;;;;;;5074252;28;20492;-79
2023/08/30 07:46:20;;;;;;;10.82;6.65;;;15.50;99.90;;;;;;5073838;28;20057;-78
2023/08/30 07:48:46;;;;;;;12.57;7.05;;;15.70;99.90;;;;;;5074567;28;20097;-79
2023/08/30 07:51:11;;;;;;;10.77;6.97;;;16.00;99.90;;;;;;5056805;28;20082;-78
2023/08/30 07:53:37;;;;;;;8.13;6.30;;;16.10;99.90;;;;;;5074639;28;20040;-79
2023/08/30 07:56:02;;;;;;;9.50;6.10;;;16.10;99.90;;;;;;5074580;28;20040;-78
2023/08/30 07:58:28;;;;;;;8.70;6.00;;;16.10;99.90;;;;;;5074516;28;20035;-78
2023/08/30 08:00:53;;;;;;;9.50;6.40;;;16.20;99.90;;;;;;5072822;28;20094;-79
2023/08/30 08:03:22;;;;;;;8.48;6.13;;;16.30;99.90;;;;;;5056766;28;20101;-79
2023/08/30 08:05:47;;;;;;;10.70;6.25;;;16.40;99.90;;;;;;5076758;28;20559;-79
2023/08/30 08:08:14;;;;;;;9.30;6.47;;;16.50;99.90;;;;;;5069781;28;20042;-78
2023/08/30 08:10:41;;;;;;;10.30;6.45;;;16.60;99.90;;;;;;5073407;28;20214;-79
2023/08/30 08:13:07;;;;;;;9.10;6.72;;;16.60;99.90;;;;;;5072503;28;20072;-79
2023/08/30 08:15:33;;;;;;;10.05;7.00;;;16.60;99.90;;;;;;5068895;28;20032;-79
2023/08/30 08:18:00;;;;;;;10.25;6.95;;;16.60;99.90;;;;;;5074936;28;20044;-79
2023/08/30 08:20:26;;;;;;;10.57;6.82;;;16.70;99.90;;;;;;5069321;28;20154;-78
2023/08/30 08:22:51;;;;;;;10.75;6.95;;;16.70;99.90;;;;;;5071867;28;20039;-78
2023/08/30 08:25:17;;;;;;;10.13;7.22;;;16.70;99.90;;;;;;5075850;28;20035;-78
2023/08/30 08:27:42;;;;;;;12.18;7.10;;;16.70;99.90;;;;;;5059984;28;20036;-79
2023/08/30 08:30:09;;;;;;;10.15;7.25;;;16.60;99.90;;;;;;5073877;28;20093;-78
2023/08/30 08:32:36;;;;;;;10.15;7.35;;;16.60;99.90;;;;;;5072039;28;20585;-79
2023/08/30 08:35:02;;;;;;;13.80;7.90;;;16.70;99.90;;;;;;5074515;28;20039;-78
2023/08/30 08:37:28;;;;;;;11.45;7.65;;;16.70;99.90;;;;;;5073035;28;20043;-78
2023/08/30 08:39:53;;;;;;;10.38;7.65;;;16.70;99.90;;;;;;5065838;28;20031;-78
2023/08/30 08:42:20;;;;;;;9.55;7.43;;;16.80;99.90;;;;;;5090961;28;20071;-78
2023/08/30 08:44:52;;;;;;;10.40;7.03;;;16.90;99.90;;;;;;5063933;28;20122;-78
2023/08/30 08:47:19;;;;;;;10.10;7.43;;;16.90;99.90;;;;;;5065499;28;20083;-79
2023/08/30 08:49:45;;;;;;;10.73;7.68;;;16.90;99.90;;;;;;5088084;28;20459;-79
2023/08/30 08:52:11;;;;;;;12.77;7.40;;;16.90;99.90;;;;;;5072157;28;20076;-79
2023/08/30 08:54:40;;;;;;;8.93;7.10;;;16.90;99.90;;;;;;5073482;28;20085;-78
2023/08/30 08:57:07;;;;;;;14.40;7.35;;;16.90;99.90;;;;;;5071866;28;20372;-79
2023/08/30 08:59:33;;;;;;;11.93;7.22;;;16.80;99.90;;;;;;5073777;28;20032;-79
2023/08/30 09:02:00;;;;;;;11.77;7.25;;;16.80;99.90;;;;;;5070730;28;20200;-78
2023/08/30 09:04:26;;;;;;;10.40;7.32;;;16.70;99.90;;;;;;5073264;28;20109;-78
2023/08/30 09:06:52;;;;;;;10.38;7.10;;;16.70;99.90;;;;;;5075033;28;20474;-78
2023/08/30 09:09:17;;;;;;;9.15;6.95;;;16.60;99.90;;;;;;5069404;28;20043;-78
2023/08/30 09:11:43;;;;;;;12.18;6.85;;;16.60;99.90;;;;;;5065829;28;20044;-78
2023/08/30 09:14:09;;;;;;;9.95;7.38;;;16.60;99.90;;;;;;5071498;28;20462;-78
2023/08/30 09:16:35;;;;;;;11.27;7.28;;;16.60;99.90;;;;;;5054836;28;20104;-78
2023/08/30 09:19:02;;;;;;;10.40;6.75;;;16.60;99.90;;;;;;5073250;28;20111;-78
2023/08/30 09:21:28;;;;;;;8.18;6.20;;;16.60;99.90;;;;;;5072796;28;20069;-78
2023/08/30 09:24:05;;;;;;;13.88;6.80;;;16.50;99.90;;;;;;5055806;28;20115;-78
2023/08/30 09:26:32;;;;;;;8.52;6.35;;;16.50;99.90;;;;;;5066574;28;20039;-78
2023/08/30 09:29:05;;;;;;;10.32;6.65;;;16.50;99.90;;;;;;5073023;28;20513;-78
2023/08/30 09:31:39;;;;;;;11.80;6.28;;;16.40;99.90;;;;;;5066383;28;20055;-78
2023/08/30 09:34:05;;;;;;;9.20;6.60;;;16.50;99.90;;;;;;5066725;28;20087;-77
2023/08/30 09:36:41;;;;;;;10.75;6.78;;;16.50;99.90;;;;;;5078362;28;20039;-78
2023/08/30 09:39:12;;;;;;;8.35;6.88;;;16.60;99.90;;;;;;5081159;28;20135;-78
2023/08/30 09:41:41;;;;;;;7.75;5.82;;;16.60;99.90;;;;;;5073767;28;20044;-78
2023/08/30 09:44:10;;;;;;;9.80;6.40;;;16.70;99.90;;;;;;5071978;28;20042;-78
2023/08/30 09:46:43;;;;;;;8.05;6.15;;;16.70;99.90;;;;;;5056169;28;20035;-78
2023/08/30 09:49:09;;;;;;;10.38;6.32;;;16.70;99.90;;;;;;5073084;28;20550;-78
2023/08/30 09:51:37;;;;;;;8.70;6.90;;;16.70;99.90;;;;;;5072973;28;20074;-78
2023/08/30 09:54:04;;;;;;;10.57;6.57;;;16.80;99.90;;;;;;5072170;28;20036;-78
2023/08/30 09:56:32;;;;;;;9.05;6.40;;;16.80;99.90;;;;;;5055791;28;20067;-78
2023/08/30 09:58:59;;;;;;;9.50;6.43;;;16.90;99.90;;;;;;5068996;28;20040;-78
2023/08/30 10:01:27;;;;;;;10.45;6.75;;;17.00;99.90;;;;;;5066374;28;20061;-78
2023/08/30 10:03:54;;;;;;;9.95;6.68;;;17.00;99.90;;;;;;5085851;28;20052;-78
2023/08/30 10:06:21;;;;;;;8.75;6.60;;;17.00;99.90;;;;;;5062778;28;20040;-78
2023/08/30 10:08:51;;;;;;;10.77;7.30;;;17.10;99.90;;;;;;5072167;28;20629;-78
2023/08/30 10:11:18;;;;;;;11.07;7.00;;;17.10;99.90;;;;;;5072429;28;20065;-78
2023/08/30 10:13:45;;;;;;;10.05;6.32;;;17.20;99.90;;;;;;5073514;28;20075;-77
2023/08/30 10:16:19;;;;;;;12.73;6.75;;;17.10;99.90;;;;;;5072665;28;20086;-78
2023/08/30 10:18:49;;;;;;;8.55;5.88;;;17.10;99.90;;;;;;5075206;28;20529;-77
2023/08/30 10:21:18;;;;;;;9.18;5.68;;;17.10;99.90;;;;;;5075566;28;20122;-78
2023/08/30 10:23:46;;;;;;;7.63;5.85;;;17.00;99.90;;;;;;5074712;28;20043;-78
2023/08/30 10:26:12;;;;;;;8.75;5.70;;;17.00;99.90;;;;;;5074729;28;20043;-78
2023/08/30 10:28:39;;;;;;;9.05;6.18;;;17.00;99.90;;;;;;5076376;28;20036;-77
2023/08/30 10:31:05;;;;;;;8.65;6.10;;;17.00;99.90;;;;;;5075779;28;20040;-78
2023/08/30 10:33:31;;;;;;;8.77;5.65;;;17.00;99.90;;;;;;5076335;28;20460;-78
2023/08/30 10:36:04;;;;;;;8.00;6.05;;;17.10;99.90;;;;;;5075077;28;20051;-78
2023/08/30 10:38:32;;;;;;;;;;;17.30;99.90;;;;;;5076206;28;20079;-78
2023/08/30 10:41:06;;;;;;;8.07;5.55;;;17.40;99.90;;;;;;5074510;28;19926;-79
2023/08/30 10:43:34;;;;;;;7.70;5.32;;;17.60;99.90;;;;;;5071780;28;20118;-78
2023/08/30 10:46:06;;;;;;;8.80;5.68;;;17.80;99.90;;;;;;5074350;28;20040;-78
2023/08/30 10:48:39;;;;;;;7.32;5.10;;;17.90;99.90;;;;;;5075694;28;20040;-76
2023/08/30 10:51:20;;;;;;;6.47;4.53;;;18.00;99.90;;;;;;5075953;28;20036;-76
2023/08/30 10:53:58;;;;;;;6.80;3.80;;;18.00;99.90;;;;;;5074681;28;20503;-76
2023/08/30 10:56:30;;;;;;;5.18;3.63;;;17.90;99.90;;;;;;5084073;28;20040;-76
2023/08/30 10:58:56;;;;;;;6.55;3.53;;;17.90;99.90;;;;;;5085528;28;20118;-76
2023/08/30 11:01:23;;;;;;;5.47;3.10;;;18.00;99.90;;;;;;5075894;28;20123;-76
2023/08/30 11:03:49;;;;;;;4.97;3.38;;;18.20;99.90;;;;;;5059313;28;20024;-76
2023/08/30 11:06:17;;;;;;;5.53;4.18;;;18.30;99.90;;;;;;5079130;28;20044;-76
2023/08/30 11:08:43;;;;;;;4.40;3.63;;;18.50;99.90;;;;;;5075131;28;20098;-76
2023/08/30 11:11:10;;;;;;;6.55;4.10;;;18.60;99.90;;;;;;5074383;28;20046;-76
2023/08/30 11:13:36;;;;;;;6.95;4.40;;;18.70;99.90;;;;;;5075516;28;20082;-77
2023/08/30 11:16:03;;;;;;;6.38;4.00;;;18.70;99.90;;;;;;5070841;28;20495;-77
2023/08/30 11:18:30;;;;;;;6.38;4.40;;;18.70;99.90;;;;;;5078072;28;20044;-76
2023/08/30 11:21:02;;;;;;;7.50;5.47;;;18.60;99.90;;;;;;5075388;28;20080;-76
2023/08/30 11:23:28;;;;;;;7.28;5.38;;;18.60;99.90;;;;;;5075621;28;20085;-76
2023/08/30 11:25:54;;;;;;;8.45;5.93;;;18.60;99.90;;;;;;5092401;28;20103;-76
2023/08/30 11:28:26;;;;;;;7.43;5.35;;;18.50;99.90;;;;;;5075923;28;20181;-76
2023/08/30 11:30:55;;;;;;;6.43;5.00;;;18.50;99.90;;;;;;5072521;28;20035;-77
2023/08/30 11:33:21;;;;;;;6.85;4.82;;;18.80;99.90;;;;;;5075214;28;20035;-75
2023/08/30 11:35:50;;;;;;;7.57;4.75;;;18.60;99.90;;;;;;5076251;28;20509;-76
2023/08/30 11:38:18;;;;;;;6.95;4.85;;;18.60;99.90;;;;;;5076751;28;20043;-76
2023/08/30 11:40:44;;;;;;;6.28;4.90;;;18.50;99.90;;;;;;5074107;28;20128;-77
2023/08/30 11:43:10;;;;;;;5.70;4.45;;;18.40;99.90;;;;;;5075466;28;20036;-76
2023/08/30 11:45:36;;;;;;;5.63;4.53;;;18.40;99.90;;;;;;5074797;28;20028;-76
2023/08/30 11:48:02;;;;;;;5.28;4.07;;;18.30;99.90;;;;;;5076082;28;20053;-76
2023/08/30 11:50:28;;;;;;;5.57;3.97;;;18.30;99.90;;;;;;5073986;28;20036;-76
2023/08/30 11:52:54;;;;;;;5.90;4.20;;;18.30;99.90;;;;;;5074523;28;20040;-76
2023/08/30 11:55:21;;;;;;;5.85;4.28;;;18.30;99.90;;;;;;5057801;28;20095;-76
2023/08/30 11:57:50;;;;;;;5.60;3.95;;;18.10;99.90;;;;;;5073519;28;20047;-77
2023/08/30 12:00:19;;;;;;;5.68;4.13;;;18.00;99.90;;;;;;5071617;28;20089;-77
2023/08/30 12:02:46;;;;;;;6.50;4.40;;;17.70;99.90;;;;;;5062177;28;20555;-76
2023/08/30 12:05:12;;;;;;;5.95;4.32;;;17.40;99.90;;;;;;5056615;28;20050;-76
2023/08/30 12:07:40;;;;;;;5.97;4.30;;;17.40;99.90;;;;;;5073463;28;20040;-76
2023/08/30 12:10:07;;;;;;;6.30;4.43;;;17.20;99.90;;;;;;5074678;28;20395;-76
2023/08/30 12:12:33;;;;;;;7.00;4.55;;;17.10;99.90;;;;;;5074619;28;20040;-76
2023/08/30 12:14:58;;;;;;;5.57;4.70;;;17.10;99.90;;;;;;5057665;28;20031;-76
2023/08/30 12:17:24;;;;;;;6.28;4.75;;;17.10;99.90;;;;;;5075219;28;20040;-77
2023/08/30 12:19:57;;;;;;;6.47;5.13;;;17.00;99.90;;;;;;5073867;28;20031;-77
2023/08/30 12:22:23;;;;;;;7.60;5.47;;;16.90;99.90;;;;;;5071655;28;20035;-77
2023/08/30 12:24:48;;;;;;;6.43;4.93;;;16.80;99.90;;;;;;5081478;28;20032;-76
2023/08/30 12:27:14;;;;;;;7.95;5.35;;;16.80;99.90;;;;;;5056875;28;20048;-77
2023/08/30 12:29:40;;;;;;;6.03;5.15;;;16.80;99.90;;;;;;5065804;28;20449;-77
2023/08/30 12:32:06;;;;;;;6.57;5.50;;;16.80;99.90;;;;;;5073092;28;20040;-77
2023/08/30 12:34:32;;;;;;;7.03;5.53;;;16.80;99.90;;;;;;5081483;28;20517;-77
2023/08/30 12:36:58;;;;;;;7.47;5.38;;;16.80;99.90;;;;;;5076990;28;20047;-77